sensor_id;sensor_type;location;lat;lon;timestamp;P1;durP1;ratioP1;P2;durP2;ratioP2
40731;SDS011;26420;52.256;9.096;2024-03-06T00:02:37;9.82;;;7.00;;
40731;SDS011;26420;52.256;9.096;2024-03-06T00:07:39;13.00;;;6.60;;
40731;SDS011;26420;52.256;9.096;2024-03-06T00:12:41;9.93;;;5.47;;
40731;SDS011;26420;52.256;9.096;2024-03-06T00:17:43;8.68;;;5.65;;
40731;SDS011;26420;52.256;9.096;2024-03-06T00:22:45;13.00;;;6.28;;
40731;SDS011;26420;52.256;9.096;2024-03-06T00:27:48;11.60;;;5.90;;
40731;SDS011;26420;52.256;9.096;2024-03-06T00:32:50;10.75;;;6.68;;
40731;SDS011;26420;52.256;9.096;2024-03-06T00:37:52;12.38;;;6.82;;
40731;SDS011;26420;52.256;9.096;2024-03-06T00:42:56;9.05;;;5.78;;
40731;SDS011;26420;52.256;9.096;2024-03-06T00:47:58;12.52;;;6.30;;
40731;SDS011;26420;52.256;9.096;2024-03-06T00:53:00;12.77;;;6.68;;
40731;SDS011;26420;52.256;9.096;2024-03-06T00:58:02;12.18;;;6.05;;
40731;SDS011;26420;52.256;9.096;2024-03-06T01:03:04;11.50;;;6.40;;
40731;SDS011;26420;52.256;9.096;2024-03-06T01:08:07;10.43;;;6.63;;
40731;SDS011;26420;52.256;9.096;2024-03-06T01:13:09;12.68;;;7.03;;
40731;SDS011;26420;52.256;9.096;2024-03-06T01:18:12;13.38;;;7.47;;
40731;SDS011;26420;52.256;9.096;2024-03-06T01:23:14;11.45;;;6.63;;
40731;SDS011;26420;52.256;9.096;2024-03-06T01:28:16;17.02;;;7.85;;
40731;SDS011;26420;52.256;9.096;2024-03-06T01:33:19;12.52;;;7.05;;
40731;SDS011;26420;52.256;9.096;2024-03-06T01:38:21;14.63;;;6.72;;
40731;SDS011;26420;52.256;9.096;2024-03-06T01:43:24;9.55;;;7.22;;
40731;SDS011;26420;52.256;9.096;2024-03-06T01:48:27;11.98;;;6.75;;
40731;SDS011;26420;52.256;9.096;2024-03-06T01:53:31;15.15;;;7.93;;
40731;SDS011;26420;52.256;9.096;2024-03-06T01:58:33;11.32;;;7.05;;
40731;SDS011;26420;52.256;9.096;2024-03-06T02:03:36;11.00;;;6.80;;
40731;SDS011;26420;52.256;9.096;2024-03-06T02:08:38;10.23;;;6.32;;
40731;SDS011;26420;52.256;9.096;2024-03-06T02:13:40;11.25;;;7.32;;
40731;SDS011;26420;52.256;9.096;2024-03-06T02:18:52;9.60;;;7.22;;
40731;SDS011;26420;52.256;9.096;2024-03-06T02:23:55;12.25;;;6.85;;
40731;SDS011;26420;52.256;9.096;2024-03-06T02:28:57;10.95;;;7.13;;
40731;SDS011;26420;52.256;9.096;2024-03-06T02:33:59;20.83;;;7.68;;
40731;SDS011;26420;52.256;9.096;2024-03-06T02:39:05;15.55;;;7.65;;
40731;SDS011;26420;52.256;9.096;2024-03-06T02:44:10;13.63;;;7.13;;
40731;SDS011;26420;52.256;9.096;2024-03-06T02:49:12;10.02;;;6.13;;
40731;SDS011;26420;52.256;9.096;2024-03-06T02:54:14;14.88;;;7.80;;
40731;SDS011;26420;52.256;9.096;2024-03-06T02:59:16;13.00;;;7.53;;
40731;SDS011;26420;52.256;9.096;2024-03-06T03:04:19;15.32;;;7.97;;
40731;SDS011;26420;52.256;9.096;2024-03-06T03:09:21;15.50;;;8.65;;
40731;SDS011;26420;52.256;9.096;2024-03-06T03:14:24;14.15;;;7.82;;
40731;SDS011;26420;52.256;9.096;2024-03-06T03:19:26;11.73;;;7.18;;
40731;SDS011;26420;52.256;9.096;2024-03-06T03:24:28;10.40;;;7.65;;
40731;SDS011;26420;52.256;9.096;2024-03-06T03:29:30;15.95;;;8.20;;
40731;SDS011;26420;52.256;9.096;2024-03-06T03:34:34;25.67;;;8.18;;
40731;SDS011;26420;52.256;9.096;2024-03-06T03:39:36;12.30;;;7.70;;
40731;SDS011;26420;52.256;9.096;2024-03-06T03:44:38;16.42;;;7.68;;
40731;SDS011;26420;52.256;9.096;2024-03-06T03:49:41;13.38;;;7.95;;
40731;SDS011;26420;52.256;9.096;2024-03-06T03:54:46;12.98;;;7.65;;
40731;SDS011;26420;52.256;9.096;2024-03-06T03:59:48;14.95;;;7.88;;
40731;SDS011;26420;52.256;9.096;2024-03-06T04:04:50;14.68;;;7.70;;
40731;SDS011;26420;52.256;9.096;2024-03-06T04:09:52;17.83;;;8.57;;
40731;SDS011;26420;52.256;9.096;2024-03-06T04:14:54;16.95;;;8.27;;
40731;SDS011;26420;52.256;9.096;2024-03-06T04:19:56;14.25;;;8.27;;
40731;SDS011;26420;52.256;9.096;2024-03-06T04:24:58;21.00;;;10.02;;
40731;SDS011;26420;52.256;9.096;2024-03-06T04:30:00;12.13;;;7.10;;
40731;SDS011;26420;52.256;9.096;2024-03-06T04:35:03;17.30;;;8.52;;
40731;SDS011;26420;52.256;9.096;2024-03-06T04:40:05;17.40;;;8.55;;
40731;SDS011;26420;52.256;9.096;2024-03-06T04:45:14;17.67;;;9.05;;
40731;SDS011;26420;52.256;9.096;2024-03-06T04:50:16;12.82;;;7.85;;
40731;SDS011;26420;52.256;9.096;2024-03-06T04:55:19;16.38;;;9.43;;
40731;SDS011;26420;52.256;9.096;2024-03-06T05:00:23;20.67;;;9.60;;
40731;SDS011;26420;52.256;9.096;2024-03-06T05:05:26;16.73;;;9.77;;
40731;SDS011;26420;52.256;9.096;2024-03-06T05:10:46;15.45;;;9.18;;
40731;SDS011;26420;52.256;9.096;2024-03-06T05:16:06;18.27;;;9.48;;
40731;SDS011;26420;52.256;9.096;2024-03-06T05:21:27;19.33;;;8.50;;
40731;SDS011;26420;52.256;9.096;2024-03-06T05:26:47;18.73;;;9.18;;
40731;SDS011;26420;52.256;9.096;2024-03-06T05:32:07;17.08;;;9.15;;
40731;SDS011;26420;52.256;9.096;2024-03-06T05:37:27;16.90;;;8.93;;
40731;SDS011;26420;52.256;9.096;2024-03-06T05:42:47;17.30;;;9.88;;
40731;SDS011;26420;52.256;9.096;2024-03-06T05:48:07;18.52;;;8.90;;
40731;SDS011;26420;52.256;9.096;2024-03-06T05:53:27;15.98;;;9.38;;
40731;SDS011;26420;52.256;9.096;2024-03-06T05:58:47;17.33;;;9.98;;
40731;SDS011;26420;52.256;9.096;2024-03-06T06:03:50;17.60;;;9.98;;
40731;SDS011;26420;52.256;9.096;2024-03-06T06:08:52;15.60;;;9.38;;
40731;SDS011;26420;52.256;9.096;2024-03-06T06:13:54;17.42;;;9.77;;
40731;SDS011;26420;52.256;9.096;2024-03-06T06:18:56;16.08;;;9.38;;
40731;SDS011;26420;52.256;9.096;2024-03-06T06:23:58;18.15;;;9.73;;
40731;SDS011;26420;52.256;9.096;2024-03-06T06:29:01;16.45;;;9.52;;
40731;SDS011;26420;52.256;9.096;2024-03-06T06:34:04;19.85;;;9.80;;
40731;SDS011;26420;52.256;9.096;2024-03-06T06:39:06;21.52;;;9.68;;
40731;SDS011;26420;52.256;9.096;2024-03-06T06:44:09;17.58;;;9.65;;
40731;SDS011;26420;52.256;9.096;2024-03-06T06:49:11;17.30;;;10.35;;
40731;SDS011;26420;52.256;9.096;2024-03-06T06:54:13;17.70;;;9.77;;
40731;SDS011;26420;52.256;9.096;2024-03-06T06:59:15;17.70;;;10.35;;
40731;SDS011;26420;52.256;9.096;2024-03-06T07:04:18;17.65;;;10.20;;
40731;SDS011;26420;52.256;9.096;2024-03-06T07:09:21;20.45;;;10.27;;
40731;SDS011;26420;52.256;9.096;2024-03-06T07:14:23;19.50;;;10.38;;
40731;SDS011;26420;52.256;9.096;2024-03-06T07:19:25;17.90;;;9.13;;
40731;SDS011;26420;52.256;9.096;2024-03-06T07:24:27;19.75;;;10.18;;
40731;SDS011;26420;52.256;9.096;2024-03-06T07:29:30;18.38;;;9.15;;
40731;SDS011;26420;52.256;9.096;2024-03-06T07:34:32;17.20;;;9.38;;
40731;SDS011;26420;52.256;9.096;2024-03-06T07:39:34;18.75;;;10.82;;
40731;SDS011;26420;52.256;9.096;2024-03-06T07:44:36;17.67;;;9.57;;
40731;SDS011;26420;52.256;9.096;2024-03-06T07:49:39;13.73;;;8.55;;
40731;SDS011;26420;52.256;9.096;2024-03-06T07:54:41;15.18;;;9.38;;
40731;SDS011;26420;52.256;9.096;2024-03-06T07:59:43;16.85;;;9.00;;
40731;SDS011;26420;52.256;9.096;2024-03-06T08:04:45;20.95;;;9.95;;
40731;SDS011;26420;52.256;9.096;2024-03-06T08:09:48;18.38;;;9.57;;
40731;SDS011;26420;52.256;9.096;2024-03-06T08:14:50;16.10;;;9.68;;
40731;SDS011;26420;52.256;9.096;2024-03-06T08:19:53;17.73;;;10.02;;
40731;SDS011;26420;52.256;9.096;2024-03-06T08:24:56;13.55;;;9.45;;
40731;SDS011;26420;52.256;9.096;2024-03-06T08:29:58;15.38;;;9.73;;
40731;SDS011;26420;52.256;9.096;2024-03-06T08:35:02;18.58;;;10.25;;
40731;SDS011;26420;52.256;9.096;2024-03-06T08:40:04;16.67;;;9.23;;
40731;SDS011;26420;52.256;9.096;2024-03-06T08:45:06;15.60;;;9.85;;
40731;SDS011;26420;52.256;9.096;2024-03-06T08:50:09;21.40;;;10.48;;
40731;SDS011;26420;52.256;9.096;2024-03-06T08:55:11;16.08;;;9.48;;
40731;SDS011;26420;52.256;9.096;2024-03-06T09:00:14;21.17;;;10.98;;
40731;SDS011;26420;52.256;9.096;2024-03-06T09:05:18;14.55;;;9.15;;
40731;SDS011;26420;52.256;9.096;2024-03-06T09:10:20;14.30;;;8.57;;
40731;SDS011;26420;52.256;9.096;2024-03-06T09:15:22;14.15;;;9.65;;
40731;SDS011;26420;52.256;9.096;2024-03-06T09:20:25;13.30;;;8.90;;
40731;SDS011;26420;52.256;9.096;2024-03-06T09:25:27;16.92;;;9.80;;
40731;SDS011;26420;52.256;9.096;2024-03-06T09:30:31;15.05;;;9.23;;
40731;SDS011;26420;52.256;9.096;2024-03-06T09:35:33;14.52;;;8.75;;
40731;SDS011;26420;52.256;9.096;2024-03-06T09:40:35;18.60;;;10.65;;
40731;SDS011;26420;52.256;9.096;2024-03-06T09:45:37;16.27;;;9.90;;
40731;SDS011;26420;52.256;9.096;2024-03-06T09:50:40;20.80;;;9.55;;
40731;SDS011;26420;52.256;9.096;2024-03-06T09:55:46;16.33;;;9.30;;
40731;SDS011;26420;52.256;9.096;2024-03-06T10:00:50;17.98;;;9.10;;
40731;SDS011;26420;52.256;9.096;2024-03-06T10:05:52;11.55;;;8.25;;
40731;SDS011;26420;52.256;9.096;2024-03-06T10:10:57;15.73;;;9.77;;
40731;SDS011;26420;52.256;9.096;2024-03-06T10:16:00;15.02;;;8.60;;
40731;SDS011;26420;52.256;9.096;2024-03-06T10:21:02;15.02;;;9.25;;
40731;SDS011;26420;52.256;9.096;2024-03-06T10:26:06;16.65;;;9.38;;
40731;SDS011;26420;52.256;9.096;2024-03-06T10:31:09;15.20;;;9.43;;
40731;SDS011;26420;52.256;9.096;2024-03-06T10:36:12;15.88;;;8.88;;
40731;SDS011;26420;52.256;9.096;2024-03-06T10:41:14;16.55;;;8.60;;
40731;SDS011;26420;52.256;9.096;2024-03-06T10:46:20;17.02;;;9.25;;
40731;SDS011;26420;52.256;9.096;2024-03-06T10:51:22;15.60;;;10.00;;
40731;SDS011;26420;52.256;9.096;2024-03-06T10:56:24;16.58;;;9.48;;
40731;SDS011;26420;52.256;9.096;2024-03-06T11:01:27;14.55;;;8.40;;
40731;SDS011;26420;52.256;9.096;2024-03-06T11:06:33;16.70;;;9.23;;
40731;SDS011;26420;52.256;9.096;2024-03-06T11:11:46;13.35;;;8.65;;
40731;SDS011;26420;52.256;9.096;2024-03-06T11:16:59;14.70;;;8.85;;
40731;SDS011;26420;52.256;9.096;2024-03-06T11:22:01;16.35;;;9.18;;
40731;SDS011;26420;52.256;9.096;2024-03-06T11:27:04;14.32;;;8.38;;
40731;SDS011;26420;52.256;9.096;2024-03-06T11:32:08;18.20;;;10.43;;
40731;SDS011;26420;52.256;9.096;2024-03-06T11:37:11;17.23;;;9.93;;
40731;SDS011;26420;52.256;9.096;2024-03-06T11:42:14;18.00;;;9.48;;
40731;SDS011;26420;52.256;9.096;2024-03-06T11:47:16;17.25;;;10.13;;
40731;SDS011;26420;52.256;9.096;2024-03-06T11:52:19;14.50;;;9.77;;
40731;SDS011;26420;52.256;9.096;2024-03-06T11:57:21;16.60;;;10.07;;
40731;SDS011;26420;52.256;9.096;2024-03-06T12:02:24;15.45;;;9.23;;
40731;SDS011;26420;52.256;9.096;2024-03-06T12:07:26;19.23;;;10.02;;
40731;SDS011;26420;52.256;9.096;2024-03-06T12:12:29;14.90;;;9.32;;
40731;SDS011;26420;52.256;9.096;2024-03-06T12:17:31;17.08;;;10.23;;
40731;SDS011;26420;52.256;9.096;2024-03-06T12:22:33;18.38;;;9.43;;
40731;SDS011;26420;52.256;9.096;2024-03-06T12:27:36;15.30;;;9.23;;
40731;SDS011;26420;52.256;9.096;2024-03-06T12:32:39;18.75;;;9.80;;
40731;SDS011;26420;52.256;9.096;2024-03-06T12:37:41;19.77;;;10.25;;
40731;SDS011;26420;52.256;9.096;2024-03-06T12:42:43;22.10;;;11.20;;
40731;SDS011;26420;52.256;9.096;2024-03-06T12:47:47;17.27;;;10.38;;
40731;SDS011;26420;52.256;9.096;2024-03-06T12:52:50;22.73;;;11.30;;
40731;SDS011;26420;52.256;9.096;2024-03-06T12:57:53;15.90;;;9.68;;
40731;SDS011;26420;52.256;9.096;2024-03-06T13:02:55;19.33;;;9.73;;
40731;SDS011;26420;52.256;9.096;2024-03-06T13:07:58;16.83;;;9.70;;
40731;SDS011;26420;52.256;9.096;2024-03-06T13:13:03;18.95;;;9.60;;
40731;SDS011;26420;52.256;9.096;2024-03-06T13:18:05;16.38;;;9.52;;
40731;SDS011;26420;52.256;9.096;2024-03-06T13:23:08;16.92;;;9.35;;
40731;SDS011;26420;52.256;9.096;2024-03-06T13:28:10;17.65;;;9.77;;
40731;SDS011;26420;52.256;9.096;2024-03-06T13:33:13;15.48;;;10.13;;
40731;SDS011;26420;52.256;9.096;2024-03-06T13:38:15;18.55;;;9.05;;
40731;SDS011;26420;52.256;9.096;2024-03-06T13:43:17;16.23;;;9.45;;
40731;SDS011;26420;52.256;9.096;2024-03-06T13:48:24;17.30;;;9.40;;
40731;SDS011;26420;52.256;9.096;2024-03-06T13:53:26;17.50;;;8.35;;
40731;SDS011;26420;52.256;9.096;2024-03-06T13:58:28;14.82;;;9.07;;
40731;SDS011;26420;52.256;9.096;2024-03-06T14:03:30;18.25;;;9.00;;
40731;SDS011;26420;52.256;9.096;2024-03-06T14:08:34;15.52;;;9.48;;
40731;SDS011;26420;52.256;9.096;2024-03-06T14:13:39;13.88;;;8.57;;
40731;SDS011;26420;52.256;9.096;2024-03-06T14:18:41;13.45;;;8.45;;
40731;SDS011;26420;52.256;9.096;2024-03-06T14:23:43;16.40;;;8.93;;
40731;SDS011;26420;52.256;9.096;2024-03-06T14:28:45;13.90;;;8.68;;
40731;SDS011;26420;52.256;9.096;2024-03-06T14:33:47;13.13;;;8.35;;
40731;SDS011;26420;52.256;9.096;2024-03-06T14:38:51;16.10;;;8.25;;
40731;SDS011;26420;52.256;9.096;2024-03-06T14:43:53;20.35;;;10.00;;
40731;SDS011;26420;52.256;9.096;2024-03-06T14:48:55;14.32;;;8.50;;
40731;SDS011;26420;52.256;9.096;2024-03-06T14:53:58;15.10;;;9.63;;
40731;SDS011;26420;52.256;9.096;2024-03-06T14:59:00;17.27;;;9.35;;
40731;SDS011;26420;52.256;9.096;2024-03-06T15:04:03;15.23;;;9.00;;
40731;SDS011;26420;52.256;9.096;2024-03-06T15:09:05;17.73;;;10.23;;
40731;SDS011;26420;52.256;9.096;2024-03-06T15:14:07;15.98;;;9.27;;
40731;SDS011;26420;52.256;9.096;2024-03-06T15:19:10;15.90;;;9.90;;
40731;SDS011;26420;52.256;9.096;2024-03-06T15:24:12;12.90;;;8.35;;
40731;SDS011;26420;52.256;9.096;2024-03-06T15:29:14;18.85;;;10.25;;
40731;SDS011;26420;52.256;9.096;2024-03-06T15:34:16;14.90;;;8.77;;
40731;SDS011;26420;52.256;9.096;2024-03-06T15:39:18;15.50;;;9.18;;
40731;SDS011;26420;52.256;9.096;2024-03-06T15:44:21;15.93;;;9.35;;
40731;SDS011;26420;52.256;9.096;2024-03-06T15:49:24;19.30;;;10.15;;
40731;SDS011;26420;52.256;9.096;2024-03-06T15:54:26;16.38;;;9.80;;
40731;SDS011;26420;52.256;9.096;2024-03-06T15:59:28;19.65;;;8.88;;
40731;SDS011;26420;52.256;9.096;2024-03-06T16:04:31;23.60;;;9.98;;
40731;SDS011;26420;52.256;9.096;2024-03-06T16:09:34;14.45;;;9.05;;
40731;SDS011;26420;52.256;9.096;2024-03-06T16:14:36;17.10;;;9.43;;
40731;SDS011;26420;52.256;9.096;2024-03-06T16:19:38;15.82;;;9.07;;
40731;SDS011;26420;52.256;9.096;2024-03-06T16:24:47;13.82;;;8.05;;
40731;SDS011;26420;52.256;9.096;2024-03-06T16:29:49;18.73;;;8.98;;
40731;SDS011;26420;52.256;9.096;2024-03-06T16:34:52;15.73;;;9.40;;
40731;SDS011;26420;52.256;9.096;2024-03-06T16:39:54;12.48;;;8.90;;
40731;SDS011;26420;52.256;9.096;2024-03-06T16:44:56;17.90;;;10.10;;
40731;SDS011;26420;52.256;9.096;2024-03-06T16:49:58;19.95;;;9.82;;
40731;SDS011;26420;52.256;9.096;2024-03-06T16:55:01;14.82;;;9.27;;
40731;SDS011;26420;52.256;9.096;2024-03-06T17:00:04;17.40;;;8.45;;
40731;SDS011;26420;52.256;9.096;2024-03-06T17:05:09;14.30;;;8.27;;
40731;SDS011;26420;52.256;9.096;2024-03-06T17:10:12;15.18;;;7.95;;
40731;SDS011;26420;52.256;9.096;2024-03-06T17:15:15;16.58;;;7.93;;
40731;SDS011;26420;52.256;9.096;2024-03-06T17:20:18;13.52;;;8.60;;
40731;SDS011;26420;52.256;9.096;2024-03-06T17:25:20;17.30;;;9.80;;
40731;SDS011;26420;52.256;9.096;2024-03-06T17:30:23;19.02;;;9.45;;
40731;SDS011;26420;52.256;9.096;2024-03-06T17:35:28;15.38;;;9.30;;
40731;SDS011;26420;52.256;9.096;2024-03-06T17:40:30;15.13;;;9.05;;
40731;SDS011;26420;52.256;9.096;2024-03-06T17:45:32;16.73;;;9.05;;
40731;SDS011;26420;52.256;9.096;2024-03-06T17:50:34;17.45;;;9.75;;
40731;SDS011;26420;52.256;9.096;2024-03-06T17:55:38;15.57;;;8.93;;
40731;SDS011;26420;52.256;9.096;2024-03-06T18:00:43;15.15;;;9.68;;
40731;SDS011;26420;52.256;9.096;2024-03-06T18:05:45;19.38;;;10.18;;
40731;SDS011;26420;52.256;9.096;2024-03-06T18:10:47;23.90;;;12.75;;
40731;SDS011;26420;52.256;9.096;2024-03-06T18:15:50;24.33;;;11.85;;
40731;SDS011;26420;52.256;9.096;2024-03-06T18:20:53;22.77;;;11.65;;
40731;SDS011;26420;52.256;9.096;2024-03-06T18:25:56;19.05;;;11.65;;
40731;SDS011;26420;52.256;9.096;2024-03-06T18:30:58;20.30;;;11.77;;
40731;SDS011;26420;52.256;9.096;2024-03-06T18:36:03;22.33;;;11.57;;
40731;SDS011;26420;52.256;9.096;2024-03-06T18:41:05;22.88;;;10.43;;
40731;SDS011;26420;52.256;9.096;2024-03-06T18:46:07;13.38;;;9.18;;
40731;SDS011;26420;52.256;9.096;2024-03-06T18:51:09;14.98;;;9.35;;
40731;SDS011;26420;52.256;9.096;2024-03-06T18:56:11;15.65;;;9.02;;
40731;SDS011;26420;52.256;9.096;2024-03-06T19:01:14;16.63;;;10.05;;
40731;SDS011;26420;52.256;9.096;2024-03-06T19:06:16;18.15;;;9.65;;
40731;SDS011;26420;52.256;9.096;2024-03-06T19:11:18;15.65;;;8.48;;
40731;SDS011;26420;52.256;9.096;2024-03-06T19:16:20;20.58;;;10.88;;
40731;SDS011;26420;52.256;9.096;2024-03-06T19:21:24;14.82;;;9.98;;
40731;SDS011;26420;52.256;9.096;2024-03-06T19:26:26;18.50;;;10.45;;
40731;SDS011;26420;52.256;9.096;2024-03-06T19:31:28;16.35;;;9.88;;
40731;SDS011;26420;52.256;9.096;2024-03-06T19:36:35;24.60;;;10.88;;
40731;SDS011;26420;52.256;9.096;2024-03-06T19:41:37;21.33;;;10.60;;
40731;SDS011;26420;52.256;9.096;2024-03-06T19:46:40;19.10;;;11.68;;
40731;SDS011;26420;52.256;9.096;2024-03-06T19:51:42;19.10;;;11.25;;
40731;SDS011;26420;52.256;9.096;2024-03-06T19:56:47;19.08;;;10.30;;
40731;SDS011;26420;52.256;9.096;2024-03-06T20:01:50;21.45;;;10.77;;
40731;SDS011;26420;52.256;9.096;2024-03-06T20:06:53;19.65;;;9.82;;
40731;SDS011;26420;52.256;9.096;2024-03-06T20:11:55;18.90;;;9.82;;
40731;SDS011;26420;52.256;9.096;2024-03-06T20:16:58;15.95;;;8.85;;
40731;SDS011;26420;52.256;9.096;2024-03-06T20:22:01;12.82;;;8.32;;
40731;SDS011;26420;52.256;9.096;2024-03-06T20:27:04;18.00;;;7.80;;
40731;SDS011;26420;52.256;9.096;2024-03-06T20:32:07;17.38;;;8.68;;
40731;SDS011;26420;52.256;9.096;2024-03-06T20:37:09;14.85;;;8.95;;
40731;SDS011;26420;52.256;9.096;2024-03-06T20:42:11;13.95;;;8.55;;
40731;SDS011;26420;52.256;9.096;2024-03-06T20:47:13;14.32;;;8.05;;
40731;SDS011;26420;52.256;9.096;2024-03-06T20:52:15;16.17;;;7.85;;
40731;SDS011;26420;52.256;9.096;2024-03-06T20:57:18;18.08;;;8.23;;
40731;SDS011;26420;52.256;9.096;2024-03-06T21:02:20;14.90;;;7.47;;
40731;SDS011;26420;52.256;9.096;2024-03-06T21:07:23;15.75;;;7.43;;
40731;SDS011;26420;52.256;9.096;2024-03-06T21:12:25;11.85;;;6.82;;
40731;SDS011;26420;52.256;9.096;2024-03-06T21:17:27;13.55;;;7.05;;
40731;SDS011;26420;52.256;9.096;2024-03-06T21:22:29;13.43;;;7.47;;
40731;SDS011;26420;52.256;9.096;2024-03-06T21:27:31;14.80;;;7.35;;
40731;SDS011;26420;52.256;9.096;2024-03-06T21:32:34;12.05;;;7.65;;
40731;SDS011;26420;52.256;9.096;2024-03-06T21:37:36;11.98;;;6.25;;
40731;SDS011;26420;52.256;9.096;2024-03-06T21:42:38;12.23;;;5.53;;
40731;SDS011;26420;52.256;9.096;2024-03-06T21:47:40;11.80;;;6.68;;
40731;SDS011;26420;52.256;9.096;2024-03-06T21:52:43;10.23;;;5.78;;
40731;SDS011;26420;52.256;9.096;2024-03-06T21:57:45;8.70;;;5.38;;
40731;SDS011;26420;52.256;9.096;2024-03-06T22:02:47;9.20;;;5.40;;
40731;SDS011;26420;52.256;9.096;2024-03-06T22:07:49;11.27;;;6.18;;
40731;SDS011;26420;52.256;9.096;2024-03-06T22:12:52;13.80;;;7.05;;
40731;SDS011;26420;52.256;9.096;2024-03-06T22:17:54;14.38;;;7.03;;
40731;SDS011;26420;52.256;9.096;2024-03-06T22:22:56;15.27;;;8.15;;
40731;SDS011;26420;52.256;9.096;2024-03-06T22:27:59;12.95;;;7.00;;
40731;SDS011;26420;52.256;9.096;2024-03-06T22:33:01;12.68;;;7.65;;
40731;SDS011;26420;52.256;9.096;2024-03-06T22:38:03;18.63;;;8.10;;
40731;SDS011;26420;52.256;9.096;2024-03-06T22:43:05;17.92;;;8.68;;
40731;SDS011;26420;52.256;9.096;2024-03-06T22:48:08;14.05;;;8.10;;
40731;SDS011;26420;52.256;9.096;2024-03-06T22:53:10;15.50;;;9.23;;
40731;SDS011;26420;52.256;9.096;2024-03-06T22:58:12;16.45;;;7.70;;
40731;SDS011;26420;52.256;9.096;2024-03-06T23:03:14;14.30;;;7.72;;
40731;SDS011;26420;52.256;9.096;2024-03-06T23:08:17;18.05;;;9.00;;
40731;SDS011;26420;52.256;9.096;2024-03-06T23:13:19;15.48;;;8.15;;
40731;SDS011;26420;52.256;9.096;2024-03-06T23:18:21;20.10;;;8.77;;
40731;SDS011;26420;52.256;9.096;2024-03-06T23:23:26;14.57;;;8.18;;
40731;SDS011;26420;52.256;9.096;2024-03-06T23:28:28;16.65;;;8.93;;
40731;SDS011;26420;52.256;9.096;2024-03-06T23:33:30;19.35;;;9.10;;
40731;SDS011;26420;52.256;9.096;2024-03-06T23:38:33;25.33;;;10.07;;
40731;SDS011;26420;52.256;9.096;2024-03-06T23:43:36;18.65;;;9.38;;
40731;SDS011;26420;52.256;9.096;2024-03-06T23:48:38;18.20;;;10.13;;
40731;SDS011;26420;52.256;9.096;2024-03-06T23:53:40;15.13;;;9.02;;
40731;SDS011;26420;52.256;9.096;2024-03-06T23:58:43;18.58;;;9.45;;
